Yasemin — 9HA2114 — position and weather

sailwx.info

Track history (hours):
 
Tides and Currents Weather Stations Pressure Air Temp Water Temp Dewpoint Dewpoint Depression Visibility Wind Speed Wind Dir Waves Ship Positions

Yasemin

Last reported at 2015-May-22 09:33 UTC. Time now 2015-May-22 09:59 UTC.
Position N 37°08' E 023°58'.

Length 105 m; draft 4.4 m.

Type: Cargo ship. MMSI: 249988000.

Date/timePositionNaut miles runAvg speedWind from/ knotsBaromVisibWave heightAir tempDewpointWater temp
2015-May-22 09:33N 37°08' E 023°58'1312.8
2015-May-22 08:33N 36°58' E 023°47'1312.9
2015-May-22 07:33N 36°49' E 023°36'1412.9
2015-May-22 06:28N 36°38' E 023°26'1212.6
2015-May-22 05:33N 36°28' E 023°19'22911.4
2015-May-21 09:29N 38°57' E 019°39'1112.5
2015-May-21 08:33N 39°07' E 019°31'1312.6
2015-May-21 07:33N 39°18' E 019°23'1312.8
2015-May-21 06:33N 39°29' E 019°15'1212.3
2015-May-21 05:33N 39°40' E 019°07'1212.1
2015-May-21 04:33N 39°50' E 018°59'1312.4
2015-May-21 03:32N 40°01' E 018°50'1212.4
2015-May-21 02:33N 40°11' E 018°42'1211.8
2015-May-21 01:33N 40°22' E 018°36'1211.9
2015-May-21 00:33N 40°32' E 018°26'1212.2
2015-May-20 23:33N 40°40' E 018°14'1412.8
2015-May-20 22:29N 40°49' E 018°00'1513.0
2015-May-20 21:20N 40°59' E 017°46'  
2015-May-14 17:22N 40°47' E 018°05'911.3
2015-May-14 16:33N 40°40' E 018°13'87 9.3
2015-May-14 07:12N 39°14' E 017°49'911.4
2015-May-14 06:25N 39°08' E 017°41'1011.3
2015-May-14 05:33N 39°01' E 017°33'103 8.3
2015-May-13 17:08N 38°13' E 015°36'14 7.7
2015-May-13 15:16N 38°20' E 015°20'911.8
2015-May-13 14:30N 38°19' E 015°09'6211.7
2015-May-13 09:11N 38°18' E 013°49'711.6
2015-May-13 08:33N 38°18' E 013°40'1211.8
2015-May-13 07:33N 38°18' E 013°25'1211.9
2015-May-13 06:33N 38°17' E 013°10'1212.0
2015-May-13 05:33N 38°16' E 012°55'1211.6
2015-May-13 04:33N 38°15' E 012°40'1111.2
2015-May-13 03:33N 38°14' E 012°26'1211.3
2015-May-13 02:30N 38°12' E 012°11'1111.3
2015-May-13 01:33N 38°09' E 011°58'2511.7
2015-May-12 23:27N 37°58' E 011°30'1511.8
2015-May-12 22:13N 37°52' E 011°13'1011.6
2015-May-12 21:21N 37°47' E 011°02'911.6
2015-May-12 20:32N 37°44' E 010°51'1211.8
2015-May-12 19:33N 37°40' E 010°37'1211.9
2015-May-12 18:33N 37°36' E 010°23'1211.8
2015-May-12 17:33N 37°34' E 010°08'1211.9
2015-May-12 16:33N 37°32' E 009°53'1212.0
2015-May-12 15:33N 37°29' E 009°39'1211.8
2015-May-12 14:33N 37°25' E 009°25'1111.2
2015-May-12 13:33N 37°22' E 009°11'1111.0
2015-May-12 12:32N 37°19' E 008°57'  
Track history (hours):
 
Tides and Currents Weather Stations Pressure Air Temp Water Temp Dewpoint Dewpoint Depression Visibility Wind Speed Wind Dir Waves Ship Positions

Yasemin

Last reported at 2015-May-22 09:33 UTC. Time now 2015-May-22 09:59 UTC.
Position N 37°08' E 023°58'.

Length 105 m; draft 4.4 m.

Type: Cargo ship. MMSI: 249988000.

Date/timePositionNaut miles runAvg speedWind from/ knotsBaromVisibWave heightAir tempDewpointWater temp
2015-May-22 09:33N 37°08' E 023°58'1312.8
2015-May-22 08:33N 36°58' E 023°47'1312.9
2015-May-22 07:33N 36°49' E 023°36'1412.9
2015-May-22 06:28N 36°38' E 023°26'1212.6
2015-May-22 05:33N 36°28' E 023°19'22911.4
2015-May-21 09:29N 38°57' E 019°39'1112.5
2015-May-21 08:33N 39°07' E 019°31'1312.6
2015-May-21 07:33N 39°18' E 019°23'1312.8
2015-May-21 06:33N 39°29' E 019°15'1212.3
2015-May-21 05:33N 39°40' E 019°07'1212.1
2015-May-21 04:33N 39°50' E 018°59'1312.4
2015-May-21 03:32N 40°01' E 018°50'1212.4
2015-May-21 02:33N 40°11' E 018°42'1211.8
2015-May-21 01:33N 40°22' E 018°36'1211.9
2015-May-21 00:33N 40°32' E 018°26'1212.2
2015-May-20 23:33N 40°40' E 018°14'1412.8
2015-May-20 22:29N 40°49' E 018°00'1513.0
2015-May-20 21:20N 40°59' E 017°46'  
2015-May-14 17:22N 40°47' E 018°05'911.3
2015-May-14 16:33N 40°40' E 018°13'87 9.3
2015-May-14 07:12N 39°14' E 017°49'911.4
2015-May-14 06:25N 39°08' E 017°41'1011.3
2015-May-14 05:33N 39°01' E 017°33'103 8.3
2015-May-13 17:08N 38°13' E 015°36'14 7.7
2015-May-13 15:16N 38°20' E 015°20'911.8
2015-May-13 14:30N 38°19' E 015°09'6211.7
2015-May-13 09:11N 38°18' E 013°49'711.6
2015-May-13 08:33N 38°18' E 013°40'1211.8
2015-May-13 07:33N 38°18' E 013°25'1211.9
2015-May-13 06:33N 38°17' E 013°10'1212.0
2015-May-13 05:33N 38°16' E 012°55'1211.6
2015-May-13 04:33N 38°15' E 012°40'1111.2
2015-May-13 03:33N 38°14' E 012°26'1211.3
2015-May-13 02:30N 38°12' E 012°11'1111.3
2015-May-13 01:33N 38°09' E 011°58'2511.7
2015-May-12 23:27N 37°58' E 011°30'1511.8
2015-May-12 22:13N 37°52' E 011°13'1011.6
2015-May-12 21:21N 37°47' E 011°02'911.6
2015-May-12 20:32N 37°44' E 010°51'1211.8
2015-May-12 19:33N 37°40' E 010°37'1211.9
2015-May-12 18:33N 37°36' E 010°23'1211.8
2015-May-12 17:33N 37°34' E 010°08'1211.9
2015-May-12 16:33N 37°32' E 009°53'1212.0
2015-May-12 15:33N 37°29' E 009°39'1211.8
2015-May-12 14:33N 37°25' E 009°25'1111.2
2015-May-12 13:33N 37°22' E 009°11'1111.0
2015-May-12 12:32N 37°19' E 008°57'  

Dump ship's entire track history